Time;durP1;ratioP1;P1;durP2;ratioP2;P2;SDS_P1;SDS_P2;PMS_P1;PMS_P2;Temp;Humidity;BMP_temperature;BMP_pressure;BME280_temperature;BME280_humidity;BME280_pressure;Samples;Min_cycle;Max_cycle;Signal;HPM_P1;HPM_P2
2022/01/18 00:01:59;;;;;;;37.70;8.23;;;;;;;;;;5074193;28;20017;-91
2022/01/18 00:04:27;;;;;;;44.90;8.40;;;;;;;;;;5073901;28;20046;-91
2022/01/18 00:06:53;;;;;;;31.10;7.97;;;;;;;;;;5074035;28;20027;-92
2022/01/18 00:09:21;;;;;;;32.53;8.17;;;;;;;;;;5073920;28;20017;-91
2022/01/18 00:11:55;;;;;;;33.80;8.40;;;;;;;;;;5065728;28;20024;-92
2022/01/18 00:14:39;;;;;;;38.07;8.40;;;;;;;;;;5054027;28;20021;-92
2022/01/18 00:17:18;;;;;;;39.57;8.30;;;;;;;;;;5053900;28;20025;-92
2022/01/18 00:19:53;;;;;;;44.73;8.80;;;;;;;;;;5053904;28;20043;-91
2022/01/18 00:22:19;;;;;;;40.70;9.47;;;;;;;;;;5053760;28;20025;-91
2022/01/18 00:24:44;;;;;;;31.67;8.43;;;;;;;;;;5053578;28;20032;-92
2022/01/18 00:27:13;;;;;;;40.73;9.60;;;;;;;;;;5053569;28;20009;-92
2022/01/18 00:29:43;;;;;;;31.70;7.77;;;;;;;;;;5054683;28;20380;-92
2022/01/18 00:32:17;;;;;;;34.60;8.30;;;;;;;;;;5053487;28;20047;-93
2022/01/18 00:34:45;;;;;;;32.00;8.23;;;;;;;;;;5054467;28;20025;-92
2022/01/18 00:37:24;;;;;;;27.33;7.53;;;;;;;;;;5053419;28;20016;-92
2022/01/18 00:39:49;;;;;;;48.90;9.03;;;;;;;;;;5053342;28;20119;-92
2022/01/18 00:42:14;;;;;;;35.80;9.30;;;;;;;;;;5053376;28;20052;-93
2022/01/18 00:44:39;;;;;;;38.83;8.63;;;;;;;;;;5053121;28;20051;-91
2022/01/18 00:47:05;;;;;;;38.23;9.20;;;;;;;;;;5053273;28;20021;-91
2022/01/18 00:49:31;;;;;;;36.33;8.73;;;;;;;;;;5053232;28;20048;-92
2022/01/18 00:51:59;;;;;;;38.47;8.53;;;;;;;;;;5053155;28;20070;-92
2022/01/18 00:54:32;;;;;;;32.30;8.20;;;;;;;;;;5054192;28;20064;-92
2022/01/18 00:56:58;;;;;;;40.87;8.60;;;;;;;;;;5053129;28;20048;-92
2022/01/18 00:59:23;;;;;;;41.17;8.93;;;;;;;;;;5054128;28;20025;-92
2022/01/18 01:01:49;;;;;;;44.03;9.20;;;;;;;;;;5053139;28;20488;-92
2022/01/18 01:04:14;;;;;;;42.20;8.63;;;;;;;;;;5052055;28;20116;-91
2022/01/18 01:06:40;;;;;;;35.67;7.90;;;;;;;;;;5052804;28;20021;-91
2022/01/18 01:09:06;;;;;;;34.40;7.97;;;;;;;;;;5052840;28;20020;-92
2022/01/18 01:11:36;;;;;;;38.83;7.63;;;;;;;;;;5063221;28;20035;-92
2022/01/18 01:14:02;;;;;;;38.73;7.70;;;;;;;;;;5073053;28;20024;-91
2022/01/18 01:43:24;;;;;;;32.40;7.70;;;;;;;;;;5053826;28;20507;-92
2022/01/18 01:45:51;;;;;;;28.30;7.27;;;;;;;;;;5052541;28;20055;-92
2022/01/18 01:48:18;;;;;;;31.50;7.50;;;;;;;;;;5061206;28;20495;-91
2022/01/18 01:50:50;;;;;;;34.53;9.23;;;;;;;;;;5069314;28;20016;-92
2022/01/18 01:53:16;;;;;;;34.17;8.25;;;;;;;;;;5069278;28;20013;-92
2022/01/18 01:55:42;;;;;;;28.43;7.77;;;;;;;;;;5069236;28;20021;-91
2022/01/18 01:58:07;;;;;;;44.37;9.40;;;;;;;;;;5069136;28;20013;-92
2022/01/18 02:00:33;;;;;;;41.67;9.47;;;;;;;;;;5069248;28;20021;-91
2022/01/18 02:02:58;;;;;;;44.57;9.30;;;;;;;;;;5069145;28;20020;-91
2022/01/18 02:05:24;;;;;;;45.93;10.07;;;;;;;;;;5068926;28;20025;-92
2022/01/18 02:07:49;;;;;;;43.27;10.80;;;;;;;;;;5070001;28;20020;-91
2022/01/18 02:10:15;;;;;;;51.27;11.27;;;;;;;;;;5072526;28;20040;-91
2022/01/18 02:12:40;;;;;;;51.93;10.77;;;;;;;;;;5072411;28;20044;-92
2022/01/18 02:15:17;;;;;;;41.97;10.10;;;;;;;;;;5072284;28;20027;-91
2022/01/18 02:23:15;;;;;;;45.13;10.73;;;;;;;;;;5077027;28;20075;-92
2022/01/18 02:25:41;;;;;;;45.93;11.20;;;;;;;;;;5076074;28;20056;-92
2022/01/18 02:28:06;;;;;;;51.57;13.73;;;;;;;;;;5075794;28;20036;-91
2022/01/18 02:30:31;;;;;;;52.73;12.17;;;;;;;;;;5075042;28;20104;-92
2022/01/18 02:32:56;;;;;;;49.27;12.70;;;;;;;;;;5075641;28;20127;-91
2022/01/18 02:35:21;;;;;;;49.40;12.67;;;;;;;;;;5075632;28;20107;-92
2022/01/18 02:37:53;;;;;;;45.17;13.23;;;;;;;;;;5076617;28;20028;-92
2022/01/18 02:40:19;;;;;;;46.80;11.93;;;;;;;;;;5075645;28;20024;-91
2022/01/18 02:42:55;;;;;;;47.83;13.27;;;;;;;;;;5075630;28;20486;-91
2022/01/18 02:45:20;;;;;;;48.30;12.90;;;;;;;;;;5075403;28;20024;-91
2022/01/18 02:47:46;;;;;;;51.53;13.37;;;;;;;;;;5075460;28;20024;-91
2022/01/18 02:50:11;;;;;;;51.80;12.93;;;;;;;;;;5071041;28;20472;-91
2022/01/18 02:52:36;;;;;;;50.23;13.40;;;;;;;;;;5055426;28;20035;-92
2022/01/18 02:55:01;;;;;;;44.47;13.93;;;;;;;;;;5055249;28;20034;-91
2022/01/18 02:57:27;;;;;;;53.63;14.07;;;;;;;;;;5055154;28;20047;-92
2022/01/18 03:00:06;;;;;;;42.53;12.30;;;;;;;;;;5055277;28;20483;-91
2022/01/18 03:05:15;;;;;;;58.37;13.90;;;;;;;;;;5056349;28;20416;-91
2022/01/18 03:07:41;;;;;;;52.67;14.07;;;;;;;;;;5055019;28;20021;-91
2022/01/18 03:10:07;;;;;;;49.20;13.13;;;;;;;;;;5054984;28;20059;-92
2022/01/18 03:12:32;;;;;;;59.23;14.60;;;;;;;;;;5054815;28;20017;-92
2022/01/18 03:14:57;;;;;;;55.73;13.57;;;;;;;;;;5054952;28;20067;-92
2022/01/18 03:17:23;;;;;;;46.33;13.37;;;;;;;;;;5054838;28;20116;-91
2022/01/18 03:19:48;;;;;;;48.67;14.10;;;;;;;;;;5054230;28;20068;-90
2022/01/18 03:22:13;;;;;;;48.57;13.83;;;;;;;;;;5055595;28;20069;-91
2022/01/18 03:24:59;;;;;;;55.53;14.80;;;;;;;;;;5054300;28;20022;-92
2022/01/18 03:30:09;;;;;;;58.40;14.43;;;;;;;;;;5055669;28;20019;-91
2022/01/18 03:32:34;;;;;;;59.13;14.37;;;;;;;;;;5054381;28;20025;-91
2022/01/18 03:35:00;;;;;;;59.27;14.13;;;;;;;;;;5054175;28;20075;-91
2022/01/18 03:37:25;;;;;;;67.47;14.50;;;;;;;;;;5055046;28;20025;-91
2022/01/18 03:39:50;;;;;;;52.80;13.47;;;;;;;;;;5054056;28;20059;-91
2022/01/18 03:45:03;;;;;;;51.80;15.53;;;;;;;;;;5054747;28;20052;-91
2022/01/18 03:47:29;;;;;;;67.23;15.57;;;;;;;;;;5055406;28;20053;-92
2022/01/18 03:49:54;;;;;;;55.60;15.97;;;;;;;;;;5054177;28;20025;-91
2022/01/18 03:52:19;;;;;;;52.50;16.47;;;;;;;;;;5054326;28;20120;-92
2022/01/18 03:54:47;;;;;;;53.13;14.20;;;;;;;;;;5054078;28;20107;-91
2022/01/18 03:57:12;;;;;;;57.10;15.80;;;;;;;;;;5054225;28;20510;-91
2022/01/18 03:59:38;;;;;;;63.47;16.83;;;;;;;;;;5055036;28;20020;-91
2022/01/18 04:02:03;;;;;;;65.13;16.23;;;;;;;;;;5054078;28;20032;-91
2022/01/18 04:04:28;;;;;;;63.53;15.67;;;;;;;;;;5053978;28;20384;-92
2022/01/18 04:06:53;;;;;;;62.23;15.90;;;;;;;;;;5054007;28;20020;-91
2022/01/18 04:09:20;;;;;;;45.60;14.87;;;;;;;;;;5053862;28;20017;-91
2022/01/18 04:11:45;;;;;;;50.80;14.53;;;;;;;;;;5053817;28;20463;-91
2022/01/18 04:14:10;;;;;;;46.70;14.73;;;;;;;;;;5053809;28;20032;-91
2022/01/18 04:16:44;;;;;;;46.70;14.23;;;;;;;;;;5053815;28;20408;-91
2022/01/18 04:27:21;;;;;;;50.40;15.23;;;;;;;;;;5054762;28;20451;-91
2022/01/18 04:29:46;;;;;;;52.33;15.47;;;;;;;;;;5053504;28;20057;-91
2022/01/18 04:32:11;;;;;;;46.30;14.70;;;;;;;;;;5053635;28;20388;-92
2022/01/18 04:34:38;;;;;;;51.20;16.07;;;;;;;;;;5053277;28;20381;-91
2022/01/18 04:37:03;;;;;;;48.03;13.73;;;;;;;;;;5053122;28;20104;-91
2022/01/18 04:39:35;;;;;;;56.43;15.47;;;;;;;;;;5052908;28;20063;-89
2022/01/18 04:42:01;;;;;;;56.25;15.13;;;;;;;;;;5052826;28;20028;-91
2022/01/18 04:49:54;;;;;;;49.17;15.53;;;;;;;;;;5054258;28;20417;-91
2022/01/18 04:52:19;;;;;;;48.93;14.63;;;;;;;;;;5052610;28;20021;-92
2022/01/18 04:54:45;;;;;;;51.63;14.93;;;;;;;;;;5052651;28;20036;-91
2022/01/18 04:59:37;;;;;;;48.10;13.80;;;;;;;;;;5054505;28;20162;-92
2022/01/18 05:02:02;;;;;;;49.03;15.37;;;;;;;;;;5053246;28;20021;-91
2022/01/18 05:04:27;;;;;;;41.83;13.57;;;;;;;;;;5052866;28;20032;-91
2022/01/18 05:06:58;;;;;;;45.00;14.00;;;;;;;;;;5053105;28;20028;-91
2022/01/18 05:09:23;;;;;;;54.93;15.03;;;;;;;;;;5053025;28;20052;-92
2022/01/18 05:11:56;;;;;;;52.87;15.00;;;;;;;;;;5053019;28;20079;-91
2022/01/18 05:14:31;;;;;;;38.50;13.47;;;;;;;;;;5052974;28;20051;-91
2022/01/18 05:17:04;;;;;;;52.03;14.43;;;;;;;;;;5068704;28;20029;-92
2022/01/18 05:19:44;;;;;;;47.70;14.07;;;;;;;;;;5074074;28;20028;-92
2022/01/18 05:24:34;;;;;;;47.87;15.37;;;;;;;;;;5073850;28;20054;-91
2022/01/18 05:27:01;;;;;;;48.83;14.60;;;;;;;;;;5073341;28;20013;-92
2022/01/18 05:29:26;;;;;;;52.17;16.47;;;;;;;;;;5072946;28;20536;-92
2022/01/18 05:31:51;;;;;;;48.70;15.07;;;;;;;;;;5072126;28;20063;-92
2022/01/18 05:34:17;;;;;;;41.53;14.80;;;;;;;;;;5072922;28;20020;-92
2022/01/18 05:36:42;;;;;;;41.53;15.03;;;;;;;;;;5072877;28;20025;-91
2022/01/18 05:39:11;;;;;;;40.67;13.30;;;;;;;;;;5073788;28;20036;-92
2022/01/18 05:41:37;;;;;;;52.57;15.63;;;;;;;;;;5072865;28;20468;-92
2022/01/18 05:44:03;;;;;;;52.57;15.03;;;;;;;;;;5072688;28;20066;-92
2022/01/18 05:46:28;;;;;;;47.67;15.13;;;;;;;;;;5072908;28;20024;-92
2022/01/18 05:48:53;;;;;;;43.57;14.77;;;;;;;;;;5072745;28;20012;-91
2022/01/18 05:51:18;;;;;;;52.67;15.10;;;;;;;;;;5066096;28;20426;-91
2022/01/18 05:53:44;;;;;;;41.13;13.97;;;;;;;;;;5056471;28;20032;-91
2022/01/18 05:56:11;;;;;;;54.27;15.67;;;;;;;;;;5056463;28;20389;-92
2022/01/18 05:58:37;;;;;;;61.13;17.30;;;;;;;;;;5056297;28;20115;-92
2022/01/18 06:01:02;;;;;;;56.93;17.07;;;;;;;;;;5061331;28;20051;-91
2022/01/18 06:03:32;;;;;;;47.97;15.83;;;;;;;;;;5075741;28;20032;-92
2022/01/18 06:08:42;;;;;;;39.03;13.50;;;;;;;;;;5077418;28;20028;-91
2022/01/18 06:11:07;;;;;;;40.97;12.50;;;;;;;;;;5075997;28;20017;-92
2022/01/18 06:13:33;;;;;;;34.50;13.57;;;;;;;;;;5076081;28;20066;-91
2022/01/18 06:15:58;;;;;;;31.83;12.63;;;;;;;;;;5076018;28;20050;-91
2022/01/18 06:18:23;;;;;;;32.27;12.63;;;;;;;;;;5075957;28;20024;-91
2022/01/18 06:20:48;;;;;;;31.43;11.67;;;;;;;;;;5075185;28;20051;-91
2022/01/18 06:23:14;;;;;;;39.50;12.93;;;;;;;;;;5075820;28;20032;-91
2022/01/18 06:25:39;;;;;;;28.20;11.10;;;;;;;;;;5075637;28;20031;-91
2022/01/18 06:28:04;;;;;;;28.50;11.10;;;;;;;;;;5075781;28;20393;-91
2022/01/18 06:30:30;;;;;;;36.17;12.23;;;;;;;;;;5075612;28;20029;-91
2022/01/18 06:32:55;;;;;;;31.00;11.37;;;;;;;;;;5075683;28;20460;-91
2022/01/18 06:35:20;;;;;;;33.90;11.53;;;;;;;;;;5075637;28;20484;-91
2022/01/18 06:37:45;;;;;;;32.17;11.03;;;;;;;;;;5075611;28;20115;-91
2022/01/18 06:40:11;;;;;;;28.07;10.87;;;;;;;;;;5075589;28;20027;-92
2022/01/18 06:42:37;;;;;;;32.33;10.97;;;;;;;;;;5073864;28;20024;-91
2022/01/18 06:45:02;;;;;;;30.90;11.47;;;;;;;;;;5064819;28;20067;-91
2022/01/18 06:47:27;;;;;;;26.27;11.00;;;;;;;;;;5055099;28;20021;-91
2022/01/18 06:49:53;;;;;;;30.33;10.57;;;;;;;;;;5055518;28;20021;-91
2022/01/18 06:52:18;;;;;;;21.83;10.30;;;;;;;;;;5055359;28;20461;-91
2022/01/18 06:54:43;;;;;;;29.10;11.50;;;;;;;;;;5055141;28;20037;-91
2022/01/18 06:57:08;;;;;;;29.57;11.40;;;;;;;;;;5055278;28;20032;-91
2022/01/18 06:59:34;;;;;;;36.43;12.00;;;;;;;;;;5063585;28;20029;-91
2022/01/18 07:02:00;;;;;;;29.83;11.53;;;;;;;;;;5060573;28;20024;-91
2022/01/18 07:04:25;;;;;;;28.23;11.43;;;;;;;;;;5074279;28;20142;-91
2022/01/18 07:06:50;;;;;;;35.87;12.07;;;;;;;;;;5074717;28;20021;-91
2022/01/18 07:09:22;;;;;;;38.10;12.10;;;;;;;;;;5074466;28;20012;-90
2022/01/18 07:11:47;;;;;;;37.40;12.18;;;;;;;;;;5074784;28;20021;-91
2022/01/18 07:14:13;;;;;;;37.67;12.30;;;;;;;;;;5074762;28;20115;-90
2022/01/18 07:16:39;;;;;;;29.87;12.73;;;;;;;;;;5074317;28;20032;-91
2022/01/18 07:19:04;;;;;;;39.23;15.37;;;;;;;;;;5074343;28;20036;-92
2022/01/18 07:21:29;;;;;;;34.53;11.90;;;;;;;;;;5074674;28;20024;-91
2022/01/18 07:24:03;;;;;;;30.60;11.80;;;;;;;;;;5071704;28;20463;-91
2022/01/18 07:26:29;;;;;;;36.40;12.70;;;;;;;;;;5061746;28;20539;-91
2022/01/18 07:28:54;;;;;;;37.90;13.73;;;;;;;;;;5064959;28;20098;-90
2022/01/18 07:31:19;;;;;;;33.70;12.73;;;;;;;;;;5060933;28;20017;-91
2022/01/18 07:33:44;;;;;;;41.63;13.60;;;;;;;;;;5066707;28;20028;-90
2022/01/18 07:36:09;;;;;;;34.70;13.03;;;;;;;;;;5075088;28;20016;-91
2022/01/18 07:38:35;;;;;;;29.77;11.93;;;;;;;;;;5074200;28;20450;-90
2022/01/18 07:41:00;;;;;;;32.50;12.70;;;;;;;;;;5074109;28;20021;-90
2022/01/18 07:43:25;;;;;;;49.73;14.03;;;;;;;;;;5074275;28;20012;-90
2022/01/18 07:45:51;;;;;;;43.27;12.77;;;;;;;;;;5074124;28;20482;-91
2022/01/18 07:48:21;;;;;;;50.23;15.00;;;;;;;;;;5073939;28;20126;-90
2022/01/18 07:50:46;;;;;;;39.40;12.27;;;;;;;;;;5073926;28;20360;-91
2022/01/18 07:53:11;;;;;;;47.20;14.10;;;;;;;;;;5075207;28;20021;-90
2022/01/18 07:55:39;;;;;;;43.03;14.10;;;;;;;;;;5058933;28;20021;-90
2022/01/18 07:58:05;;;;;;;38.20;14.23;;;;;;;;;;5053695;28;20107;-91
2022/01/18 08:00:30;;;;;;;45.33;14.27;;;;;;;;;;5053664;28;20087;-91
2022/01/18 08:02:55;;;;;;;44.53;15.60;;;;;;;;;;5053923;28;20468;-90
2022/01/18 08:05:21;;;;;;;44.60;15.27;;;;;;;;;;5055773;28;20051;-92
2022/01/18 08:07:46;;;;;;;45.83;16.20;;;;;;;;;;5069160;28;20073;-92
2022/01/18 08:10:13;;;;;;;48.73;18.67;;;;;;;;;;5073388;28;20021;-91
2022/01/18 08:12:39;;;;;;;43.43;16.70;;;;;;;;;;5073844;28;20024;-92
2022/01/18 08:15:13;;;;;;;54.57;19.80;;;;;;;;;;5072912;28;20028;-92
2022/01/18 08:17:39;;;;;;;61.40;19.47;;;;;;;;;;5073412;28;20024;-92
2022/01/18 08:20:04;;;;;;;52.40;18.90;;;;;;;;;;5073344;28;20036;-92
2022/01/18 08:22:30;;;;;;;45.53;18.20;;;;;;;;;;5061739;28;20017;-92
2022/01/18 08:24:55;;;;;;;51.37;17.93;;;;;;;;;;5053430;28;20415;-92
2022/01/18 08:27:21;;;;;;;46.20;17.97;;;;;;;;;;5063635;28;20532;-92
2022/01/18 08:29:46;;;;;;;52.13;18.07;;;;;;;;;;5073074;28;20055;-92
2022/01/18 08:32:11;;;;;;;45.63;18.03;;;;;;;;;;5073415;28;20012;-92
2022/01/18 08:34:37;;;;;;;54.90;18.37;;;;;;;;;;5073718;28;20107;-92
2022/01/18 08:37:02;;;;;;;53.50;17.90;;;;;;;;;;5074100;28;20051;-92
2022/01/18 08:39:27;;;;;;;51.37;18.10;;;;;;;;;;5071456;28;20438;-92
2022/01/18 08:41:52;;;;;;;48.87;18.80;;;;;;;;;;5053212;28;20520;-92
2022/01/18 08:44:17;;;;;;;50.67;18.13;;;;;;;;;;5052856;28;20067;-92
2022/01/18 08:46:43;;;;;;;51.63;17.77;;;;;;;;;;5061618;28;20028;-92
2022/01/18 08:49:08;;;;;;;46.07;17.07;;;;;;;;;;5072609;28;20380;-93
2022/01/18 08:51:34;;;;;;;51.33;18.67;;;;;;;;;;5072961;28;20472;-92
2022/01/18 08:54:00;;;;;;;54.90;17.87;;;;;;;;;;5073169;28;20013;-91
2022/01/18 08:56:25;;;;;;;54.00;18.23;;;;;;;;;;5072922;28;20024;-92
2022/01/18 08:58:51;;;;;;;40.63;17.87;;;;;;;;;;5073010;28;20028;-92
2022/01/18 09:01:17;;;;;;;51.67;18.77;;;;;;;;;;5072444;28;20032;-90
2022/01/18 09:03:42;;;;;;;48.70;17.77;;;;;;;;;;5072670;28;20112;-91
2022/01/18 09:06:07;;;;;;;46.00;17.83;;;;;;;;;;5072832;28;20222;-91
2022/01/18 09:08:36;;;;;;;47.77;16.83;;;;;;;;;;5072817;28;20009;-90
2022/01/18 09:11:01;;;;;;;47.03;17.63;;;;;;;;;;5072467;28;20016;-90
2022/01/18 09:13:28;;;;;;;50.43;17.90;;;;;;;;;;5072918;28;20539;-90
2022/01/18 09:15:53;;;;;;;43.53;16.73;;;;;;;;;;5073639;28;20384;-91
2022/01/18 09:18:19;;;;;;;48.23;17.73;;;;;;;;;;5072811;28;20019;-90
2022/01/18 09:20:44;;;;;;;47.00;17.23;;;;;;;;;;5072257;28;20025;-91
2022/01/18 09:23:09;;;;;;;42.50;17.73;;;;;;;;;;5072445;28;20016;-90
2022/01/18 09:25:35;;;;;;;47.90;18.47;;;;;;;;;;5059880;28;20120;-90
2022/01/18 09:28:00;;;;;;;56.13;19.53;;;;;;;;;;5056501;28;20051;-90
2022/01/18 09:30:27;;;;;;;47.47;18.67;;;;;;;;;;5071493;28;20025;-90
2022/01/18 09:32:53;;;;;;;48.80;18.03;;;;;;;;;;5076615;28;20025;-91
2022/01/18 09:35:19;;;;;;;46.07;16.93;;;;;;;;;;5075025;28;20039;-91
2022/01/18 09:37:44;;;;;;;61.10;18.37;;;;;;;;;;5076724;28;20643;-91
2022/01/18 09:40:10;;;;;;;36.90;16.33;;;;;;;;;;5076887;28;20174;-91
2022/01/18 09:42:39;;;;;;;48.20;17.60;;;;;;;;;;5076281;28;20036;-91
2022/01/18 09:45:05;;;;;;;45.07;16.10;;;;;;;;;;5076435;28;20204;-91
2022/01/18 09:47:31;;;;;;;42.83;14.67;;;;;;;;;;5076496;28;20017;-91
2022/01/18 09:49:59;;;;;;;39.70;14.83;;;;;;;;;;5076573;28;20027;-91
2022/01/18 09:52:25;;;;;;;42.50;15.80;;;;;;;;;;5069553;28;20027;-91
2022/01/18 09:54:50;;;;;;;52.20;16.23;;;;;;;;;;5056234;28;20115;-91
2022/01/18 09:57:15;;;;;;;39.87;15.17;;;;;;;;;;5056183;28;20021;-92
2022/01/18 09:59:40;;;;;;;46.00;15.20;;;;;;;;;;5056357;28;20021;-92
2022/01/18 10:02:09;;;;;;;35.97;15.50;;;;;;;;;;5056346;28;20059;-92
2022/01/18 10:04:38;;;;;;;48.93;18.13;;;;;;;;;;5056266;28;20472;-88
2022/01/18 10:07:04;;;;;;;50.97;18.40;;;;;;;;;;5056223;28;20025;-91
2022/01/18 10:09:29;;;;;;;52.97;19.20;;;;;;;;;;5057070;28;20017;-91
2022/01/18 10:12:11;;;;;;;49.63;19.07;;;;;;;;;;5056034;28;20021;-91
2022/01/18 10:15:03;;;;;;;52.10;19.90;;;;;;;;;;5056110;28;20384;-91
2022/01/18 10:17:31;;;;;;;48.70;21.70;;;;;;;;;;5052843;28;20024;-91
2022/01/18 10:20:19;;;;;;;48.40;19.93;;;;;;;;;;5056985;28;20073;-91
2022/01/18 10:22:48;;;;;;;46.97;19.03;;;;;;;;;;5057002;28;20056;-91
2022/01/18 10:25:19;;;;;;;51.57;20.33;;;;;;;;;;5055718;28;20098;-91
2022/01/18 10:27:47;;;;;;;51.70;20.37;;;;;;;;;;5056918;28;20492;-91
2022/01/18 10:30:20;;;;;;;65.50;22.40;;;;;;;;;;5055781;28;20020;-90
2022/01/18 10:33:00;;;;;;;59.67;20.87;;;;;;;;;;5055463;28;20028;-92
2022/01/18 10:35:25;;;;;;;53.53;20.63;;;;;;;;;;5055744;28;20083;-91
2022/01/18 10:37:50;;;;;;;61.07;21.00;;;;;;;;;;5055358;28;20029;-92
2022/01/18 10:40:17;;;;;;;59.60;22.40;;;;;;;;;;5056551;28;20095;-91
2022/01/18 10:42:51;;;;;;;63.67;22.70;;;;;;;;;;5055544;28;20027;-92
2022/01/18 10:45:27;;;;;;;61.73;20.83;;;;;;;;;;5055173;28;20074;-91
2022/01/18 10:47:57;;;;;;;61.20;22.20;;;;;;;;;;5055445;28;20423;-91
2022/01/18 10:50:23;;;;;;;62.83;21.23;;;;;;;;;;5055492;28;20017;-91
2022/01/18 10:52:49;;;;;;;54.70;20.70;;;;;;;;;;5070651;28;20020;-91
2022/01/18 10:55:16;;;;;;;57.57;21.00;;;;;;;;;;5075039;28;20028;-91
2022/01/18 10:57:42;;;;;;;49.50;19.17;;;;;;;;;;5075202;28;20024;-91
2022/01/18 11:00:08;;;;;;;61.07;22.10;;;;;;;;;;5067139;28;20028;-91
2022/01/18 11:02:34;;;;;;;53.03;19.27;;;;;;;;;;5061378;28;20106;-90
2022/01/18 11:04:59;;;;;;;54.17;19.13;;;;;;;;;;5054901;28;20373;-91
2022/01/18 11:07:25;;;;;;;46.87;16.73;;;;;;;;;;5071843;28;20147;-92
2022/01/18 11:09:51;;;;;;;59.37;18.90;;;;;;;;;;5071628;28;20021;-91
2022/01/18 11:12:19;;;;;;;60.47;19.50;;;;;;;;;;5071540;28;20017;-92
2022/01/18 11:14:46;;;;;;;56.83;20.07;;;;;;;;;;5071832;28;20025;-91
2022/01/18 11:17:19;;;;;;;62.57;20.50;;;;;;;;;;5060252;28;20048;-91
2022/01/18 11:19:46;;;;;;;53.03;18.70;;;;;;;;;;5054663;28;20075;-91
2022/01/18 11:22:12;;;;;;;50.77;19.43;;;;;;;;;;5055826;28;20148;-91
2022/01/18 11:24:39;;;;;;;59.87;20.87;;;;;;;;;;5055783;28;20041;-91
2022/01/18 11:27:10;;;;;;;65.03;19.53;;;;;;;;;;5056754;28;20014;-91
2022/01/18 11:29:36;;;;;;;44.90;16.80;;;;;;;;;;5074601;28;20029;-91
2022/01/18 11:32:01;;;;;;;55.07;18.67;;;;;;;;;;5074519;28;20107;-91
2022/01/18 11:34:32;;;;;;;60.23;19.30;;;;;;;;;;5074315;28;20028;-92
2022/01/18 11:37:02;;;;;;;56.73;20.27;;;;;;;;;;5074470;28;20107;-92
2022/01/18 11:39:30;;;;;;;69.87;24.50;;;;;;;;;;5074410;28;20111;-91
2022/01/18 11:42:09;;;;;;;57.67;20.37;;;;;;;;;;5074329;28;20020;-92
2022/01/18 11:44:35;;;;;;;52.13;18.50;;;;;;;;;;5074088;28;20048;-91
2022/01/18 11:47:01;;;;;;;54.97;18.73;;;;;;;;;;5074394;28;20016;-91
2022/01/18 11:49:32;;;;;;;54.63;17.70;;;;;;;;;;5074695;28;20013;-91
2022/01/18 11:52:05;;;;;;;63.40;19.25;;;;;;;;;;5073956;28;20024;-92
2022/01/18 11:54:37;;;;;;;50.78;17.50;;;;;;;;;;5074158;28;20115;-91
2022/01/18 11:57:27;;;;;;;53.83;17.08;;;;;;;;;;5073828;28;20032;-91
2022/01/18 11:59:58;;;;;;;53.23;17.80;;;;;;;;;;5062215;28;20033;-91
2022/01/18 12:02:34;;;;;;;52.03;18.83;;;;;;;;;;5073812;28;20020;-91
2022/01/18 12:05:07;;;;;;;60.07;18.50;;;;;;;;;;5073682;28;20044;-91
2022/01/18 12:07:36;;;;;;;64.63;18.42;;;;;;;;;;5074752;28;20074;-91
2022/01/18 12:10:05;;;;;;;55.00;18.97;;;;;;;;;;5073605;28;20040;-91
2022/01/18 12:12:40;;;;;;;57.13;17.37;;;;;;;;;;5061957;28;20021;-92
2022/01/18 12:15:23;;;;;;;57.27;16.80;;;;;;;;;;5073438;28;20414;-92
2022/01/18 12:17:53;;;;;;;56.60;18.93;;;;;;;;;;5053489;28;20021;-92
2022/01/18 12:20:37;;;;;;;53.57;17.07;;;;;;;;;;5064814;28;20602;-92
2022/01/18 12:23:04;;;;;;;43.60;16.33;;;;;;;;;;5073312;28;20020;-91
2022/01/18 12:25:31;;;;;;;57.97;18.10;;;;;;;;;;5073932;28;20048;-92
2022/01/18 12:28:01;;;;;;;59.47;16.97;;;;;;;;;;5073484;28;20476;-91
2022/01/18 12:30:52;;;;;;;49.30;15.20;;;;;;;;;;5067020;28;20107;-92
2022/01/18 12:33:18;;;;;;;55.30;15.60;;;;;;;;;;5054488;28;20096;-91
2022/01/18 12:35:43;;;;;;;53.03;15.63;;;;;;;;;;5055247;28;20473;-91
2022/01/18 12:38:10;;;;;;;50.90;14.90;;;;;;;;;;5072949;28;20059;-92
2022/01/18 12:40:41;;;;;;;53.57;14.33;;;;;;;;;;5073217;28;20028;-92
2022/01/18 12:45:33;;;;;;;39.37;11.93;;;;;;;;;;5074571;28;20028;-92
2022/01/18 12:48:00;;;;;;;44.00;12.10;;;;;;;;;;5069949;28;20020;-92
2022/01/18 12:50:30;;;;;;;41.05;11.05;;;;;;;;;;5073242;28;20016;-95
2022/01/18 12:53:09;;;;;;;37.90;11.23;;;;;;;;;;5073859;28;20476;-96
2022/01/18 12:55:35;;;;;;;41.80;12.40;;;;;;;;;;5073716;28;20021;-93
2022/01/18 12:58:03;;;;;;;42.93;10.70;;;;;;;;;;5072981;28;20083;-93
2022/01/18 13:00:29;;;;;;;38.10;12.33;;;;;;;;;;5073090;28;20039;-93
2022/01/18 13:02:59;;;;;;;47.03;13.90;;;;;;;;;;5073131;28;20032;-93
2022/01/18 13:05:32;;;;;;;44.10;14.53;;;;;;;;;;5057597;28;20023;-92
2022/01/18 13:07:57;;;;;;;49.22;14.18;;;;;;;;;;5072599;28;20013;-93
2022/01/18 13:10:39;;;;;;;39.87;12.80;;;;;;;;;;5053196;28;20051;-92
2022/01/18 13:13:04;;;;;;;;;;;;;;;;;;5054695;28;20074;-92
2022/01/18 13:15:48;;;;;;;42.90;13.50;;;;;;;;;;5059002;28;19904;-92
2022/01/18 13:22:57;;;;;;;34.60;12.37;;;;;;;;;;5074726;28;20074;-94
2022/01/18 13:26:28;;;;;;;37.93;9.63;;;;;;;;;;5074206;28;20017;-94
2022/01/18 13:28:53;;;;;;;42.13;10.20;;;;;;;;;;5066016;28;20535;-94
2022/01/18 13:31:19;;;;;;;31.63;9.20;;;;;;;;;;5073130;28;20044;-93
2022/01/18 13:33:48;;;;;;;30.45;8.75;;;;;;;;;;5069219;28;20017;-92
2022/01/18 13:36:13;;;;;;;31.50;8.27;;;;;;;;;;5053015;28;20372;-93
2022/01/18 13:38:38;;;;;;;29.57;8.53;;;;;;;;;;5052920;28;20012;-93
2022/01/18 13:41:03;;;;;;;26.90;6.57;;;;;;;;;;5052841;28;20021;-92
2022/01/18 13:43:29;;;;;;;25.40;7.17;;;;;;;;;;5052773;28;20017;-92
2022/01/18 13:45:54;;;;;;;32.50;8.77;;;;;;;;;;5052928;28;20406;-92
2022/01/18 13:48:28;;;;;;;36.03;9.40;;;;;;;;;;5052856;28;20021;-92
2022/01/18 13:50:56;;;;;;;32.90;8.73;;;;;;;;;;5053110;28;20024;-92
2022/01/18 13:53:28;;;;;;;38.43;9.93;;;;;;;;;;5053370;28;20017;-92
2022/01/18 13:55:59;;;;;;;24.45;7.75;;;;;;;;;;5052786;28;20041;-92
2022/01/18 13:58:26;;;;;;;30.73;8.83;;;;;;;;;;5052697;28;20108;-92
2022/01/18 14:00:52;;;;;;;27.23;7.93;;;;;;;;;;5052689;28;20244;-92
2022/01/18 14:03:37;;;;;;;27.37;8.07;;;;;;;;;;5053770;28;20013;-92
2022/01/18 14:06:03;;;;;;;50.63;11.07;;;;;;;;;;5056322;28;20020;-92
2022/01/18 14:08:38;;;;;;;29.43;9.17;;;;;;;;;;5072694;28;20024;-92
2022/01/18 14:11:05;;;;;;;27.50;8.83;;;;;;;;;;5072726;28;20019;-92
2022/01/18 14:13:35;;;;;;;31.23;9.43;;;;;;;;;;5075866;28;20368;-92
2022/01/18 14:16:01;;;;;;;37.50;9.43;;;;;;;;;;5064054;28;20090;-92
2022/01/18 14:18:26;;;;;;;33.43;8.87;;;;;;;;;;5056359;28;20013;-92
2022/01/18 14:20:51;;;;;;;38.60;9.77;;;;;;;;;;5056094;28;20029;-93
2022/01/18 14:23:18;;;;;;;38.27;10.30;;;;;;;;;;5056295;28;20017;-92
2022/01/18 14:25:43;;;;;;;34.33;9.60;;;;;;;;;;5068170;28;20021;-92
2022/01/18 14:28:10;;;;;;;36.00;8.87;;;;;;;;;;5060164;28;20017;-93
2022/01/18 14:30:35;;;;;;;39.17;8.80;;;;;;;;;;5056026;28;20030;-93
2022/01/18 14:33:01;;;;;;;49.87;14.10;;;;;;;;;;5056103;28;20135;-92
2022/01/18 14:35:27;;;;;;;35.27;11.80;;;;;;;;;;5056046;28;20056;-92
2022/01/18 14:37:53;;;;;;;93.83;29.10;;;;;;;;;;5058318;28;20024;-92
2022/01/18 14:40:26;;;;;;;73.77;25.77;;;;;;;;;;5076042;28;20021;-92
2022/01/18 14:42:58;;;;;;;134.00;54.40;;;;;;;;;;5075932;28;20028;-92
2022/01/18 14:47:51;;;;;;;34.60;10.07;;;;;;;;;;5076772;28;20020;-92
2022/01/18 14:50:18;;;;;;;34.77;9.90;;;;;;;;;;5075965;28;20020;-92
2022/01/18 14:52:46;;;;;;;35.30;10.37;;;;;;;;;;5056230;28;20025;-92
2022/01/18 14:55:11;;;;;;;37.17;10.40;;;;;;;;;;5062745;28;20051;-92
2022/01/18 14:57:37;;;;;;;38.00;10.00;;;;;;;;;;5075628;28;20021;-92
2022/01/18 15:00:04;;;;;;;30.13;9.10;;;;;;;;;;5075214;28;20016;-93
2022/01/18 15:02:30;;;;;;;36.17;9.30;;;;;;;;;;5075465;28;20476;-92
2022/01/18 15:04:55;;;;;;;43.90;9.90;;;;;;;;;;5075333;28;20024;-92
2022/01/18 15:07:20;;;;;;;36.80;9.07;;;;;;;;;;5075396;28;20016;-92
2022/01/18 15:09:46;;;;;;;36.27;8.90;;;;;;;;;;5076793;28;20021;-91
2022/01/18 15:12:11;;;;;;;30.47;9.00;;;;;;;;;;5075282;28;20021;-92
2022/01/18 15:14:36;;;;;;;36.50;9.80;;;;;;;;;;5075359;28;20072;-92
2022/01/18 15:17:01;;;;;;;34.33;11.07;;;;;;;;;;5075191;28;20472;-92
2022/01/18 15:19:27;;;;;;;41.97;11.60;;;;;;;;;;5074990;28;20028;-93
2022/01/18 15:21:52;;;;;;;36.70;11.00;;;;;;;;;;5076296;28;20414;-92
2022/01/18 15:24:18;;;;;;;37.40;11.40;;;;;;;;;;5073873;28;20021;-92
2022/01/18 15:26:43;;;;;;;45.03;10.87;;;;;;;;;;5074985;28;20107;-92
2022/01/18 15:29:08;;;;;;;35.03;10.23;;;;;;;;;;5074972;28;20073;-92
2022/01/18 15:31:33;;;;;;;33.73;9.93;;;;;;;;;;5061775;28;20017;-92
2022/01/18 15:33:59;;;;;;;32.67;9.43;;;;;;;;;;5054793;28;20024;-92
2022/01/18 15:36:24;;;;;;;33.83;9.53;;;;;;;;;;5054897;28;20083;-92